Map

Track Data

SID SEASON NUMBER BASIN SUBBASIN NAME ISO_TIME NATURE LAT LON WMO_WIND WMO_PRES WMO_AGENCY TRACK_TYPE DIST2LAND LANDFALL IFLAG USA_AGENCY USA_ATCF_ID USA_LAT USA_LON USA_RECORD USA_STATUS USA_WIND USA_PRES USA_SSHS USA_R34_NE USA_R34_SE USA_R34_SW USA_R34_NW USA_R50_NE USA_R50_SE USA_R50_SW USA_R50_NW USA_R64_NE USA_R64_SE USA_R64_SW USA_R64_NW USA_POCI USA_ROCI USA_RMW USA_EYE TOKYO_LAT TOKYO_LON TOKYO_GRADE TOKYO_WIND TOKYO_PRES TOKYO_R50_DIR TOKYO_R50_LONG TOKYO_R50_SHORT TOKYO_R30_DIR TOKYO_R30_LONG TOKYO_R30_SHORT TOKYO_LAND CMA_LAT CMA_LON CMA_CAT CMA_WIND CMA_PRES HKO_LAT HKO_LON HKO_CAT HKO_WIND HKO_PRES NEWDELHI_LAT NEWDELHI_LON NEWDELHI_GRADE NEWDELHI_WIND NEWDELHI_PRES NEWDELHI_CI NEWDELHI_DP NEWDELHI_POCI REUNION_LAT REUNION_LON REUNION_TYPE REUNION_WIND REUNION_PRES REUNION_TNUM REUNION_CI REUNION_RMW REUNION_R34_NE REUNION_R34_SE REUNION_R34_SW REUNION_R34_NW REUNION_R50_NE REUNION_R50_SE REUNION_R50_SW REUNION_R50_NW REUNION_R64_NE REUNION_R64_SE REUNION_R64_SW REUNION_R64_NW BOM_LAT BOM_LON BOM_TYPE BOM_WIND BOM_PRES BOM_TNUM BOM_CI BOM_RMW BOM_R34_NE BOM_R34_SE BOM_R34_SW BOM_R34_NW BOM_R50_NE BOM_R50_SE BOM_R50_SW BOM_R50_NW BOM_R64_NE BOM_R64_SE BOM_R64_SW BOM_R64_NW BOM_ROCI BOM_POCI BOM_EYE BOM_POS_METHOD BOM_PRES_METHOD NADI_LAT NADI_LON NADI_CAT NADI_WIND NADI_PRES WELLINGTON_LAT WELLINGTON_LON WELLINGTON_WIND WELLINGTON_PRES DS824_LAT DS824_LON DS824_STAGE DS824_WIND DS824_PRES TD9636_LAT TD9636_LON TD9636_STAGE TD9636_WIND TD9636_PRES TD9635_LAT TD9635_LON TD9635_WIND TD9635_PRES TD9635_ROCI NEUMANN_LAT NEUMANN_LON NEUMANN_CLASS NEUMANN_WIND NEUMANN_PRES MLC_LAT MLC_LON MLC_CLASS MLC_WIND MLC_PRES USA_GUST BOM_GUST BOM_GUST_PER REUNION_GUST REUNION_GUST_PER USA_SEAHGT USA_SEARAD_NE USA_SEARAD_SE USA_SEARAD_SW USA_SEARAD_NW STORM_SPEED STORM_DIR
1851289N29282 1851 18 NA NA NOT_NAMED 1851-10-16 00:00:00 TS 28.7000 -78.0000 40 hurdat_atl main 244 244 O_____________ hurdat_atl AL061851 28.7000 -78.0000 TS 40 0 4 21
1851289N29282 1851 18 NA NA NOT_NAMED 1851-10-16 03:00:00 TS 28.9050 -77.9076 main 257 257 P_____________ AL061851 28.9050 -77.9076 TS 40 0 4 24
1851289N29282 1851 18 NA NA NOT_NAMED 1851-10-16 06:00:00 TS 29.1000 -77.8000 40 hurdat_atl main 271 271 O_____________ hurdat_atl AL061851 29.1000 -77.8000 TS 40 0 4 29
1851289N29282 1851 18 NA NA NOT_NAMED 1851-10-16 09:00:00 TS 29.2850 -77.6649 main 286 286 P_____________ AL061851 29.2850 -77.6649 TS 45 0 5 33
1851289N29282 1851 18 NA NA NOT_NAMED 1851-10-16 12:00:00 TS 29.5000 -77.5000 50 hurdat_atl main 312 312 O_____________ hurdat_atl AL061851 29.5000 -77.5000 TS 50 0 6 31
1851289N29282 1851 18 NA NA NOT_NAMED 1851-10-16 15:00:00 TS 29.7850 -77.3149 main 342 342 P_____________ AL061851 29.7850 -77.3149 TS 50 0 7 30
1851289N29282 1851 18 NA NA NOT_NAMED 1851-10-16 18:00:00 TS 30.1000 -77.1000 50 hurdat_atl main 374 373 O_____________ hurdat_atl AL061851 30.1000 -77.1000 TS 50 0 7 33
1851289N29282 1851 18 NA NA NOT_NAMED 1851-10-16 21:00:00 TS 30.4076 -76.8426 main 379 368 P_____________ AL061851 30.4076 -76.8426 TS 55 0 7 36
1851289N29282 1851 18 NA NA NOT_NAMED 1851-10-17 00:00:00 TS 30.7000 -76.6000 60 hurdat_atl main 368 356 O_____________ hurdat_atl AL061851 30.7000 -76.6000 TS 60 0 7 32
1851289N29282 1851 18 NA NA NOT_NAMED 1851-10-17 03:00:00 TS 30.9649 -76.4422 main 356 340 P_____________ AL061851 30.9649 -76.4422 TS 60 0 6 27
1851289N29282 1851 18 NA NA NOT_NAMED 1851-10-17 06:00:00 TS 31.2000 -76.3000 60 hurdat_atl main 340 325 O_____________ hurdat_atl AL061851 31.2000 -76.3000 TS 60 0 5 33
1851289N29282 1851 18 NA NA NOT_NAMED 1851-10-17 09:00:00 TS 31.4075 -76.1074 main 330 321 P_____________ AL061851 31.4075 -76.1074 TS 60 0 5 40
1851289N29282 1851 18 NA NA NOT_NAMED 1851-10-17 12:00:00 TS 31.6000 -75.9000 60 hurdat_atl main 322 317 O_____________ hurdat_atl AL061851 31.6000 -75.9000 TS 60 0 5 42
1851289N29282 1851 18 NA NA NOT_NAMED 1851-10-17 15:00:00 TS 31.7774 -75.7146 main 317 314 P_____________ AL061851 31.7774 -75.7146 TS 60 0 5 40
1851289N29282 1851 18 NA NA NOT_NAMED 1851-10-17 18:00:00 TS 32.0000 -75.5000 60 hurdat_atl main 314 289 O_____________ hurdat_atl AL061851 32.0000 -75.5000 TS 60 0 7 37
1851289N29282 1851 18 NA NA NOT_NAMED 1851-10-17 21:00:00 TS 32.3350 -75.2152 main 293 267 P_____________ AL061851 32.3350 -75.2152 TS 60 0 9 36
1851289N29282 1851 18 NA NA NOT_NAMED 1851-10-18 00:00:00 TS 32.7000 -74.9000 60 hurdat_atl main 267 258 O_____________ hurdat_atl AL061851 32.7000 -74.9000 TS 60 0 8 38
1851289N29282 1851 18 NA NA NOT_NAMED 1851-10-18 03:00:00 TS 33.0000 -74.5922 main 258 255 P_____________ AL061851 33.0000 -74.5922 TS 60 0 8 40
1851289N29282 1851 18 NA NA NOT_NAMED 1851-10-18 06:00:00 TS 33.3000 -74.3000 60 hurdat_atl main 255 247 O_____________ hurdat_atl AL061851 33.3000 -74.3000 TS 60 0 7 37
1851289N29282 1851 18 NA NA NOT_NAMED 1851-10-18 09:00:00 TS 33.5972 -74.0639 main 248 243 P_____________ AL061851 33.5972 -74.0639 TS 60 0 8 31
1851289N29282 1851 18 NA NA NOT_NAMED 1851-10-18 12:00:00 TS 34.0000 -73.8000 60 hurdat_atl main 248 232 O_____________ hurdat_atl AL061851 34.0000 -73.8000 TS 60 0 11 30
1851289N29282 1851 18 NA NA NOT_NAMED 1851-10-18 15:00:00 TS 34.5753 -73.3933 main 232 226 P_____________ AL061851 34.5753 -73.3933 TS 60 0 15 27
1851289N29282 1851 18 NA NA NOT_NAMED 1851-10-18 18:00:00 TS 35.3000 -73.0000 60 hurdat_atl main 232 229 O_____________ hurdat_atl AL061851 35.3000 -73.0000 TS 60 0 16 18
1851289N29282 1851 18 NA NA NOT_NAMED 1851-10-18 21:00:00 TS 36.1347 -72.7764 main 244 244 P_____________ AL061851 36.1347 -72.7764 TS 55 0 17 11
1851289N29282 1851 18 NA NA NOT_NAMED 1851-10-19 00:00:00 TS 37.0000 -72.6000 50 hurdat_atl main 262 245 O_____________ hurdat_atl AL061851 37.0000 -72.6000 TS 50 0 17 12
1851289N29282 1851 18 NA NA NOT_NAMED 1851-10-19 03:00:00 TS 37.7501 -72.3424 main 250 219 P_____________ AL061851 37.7501 -72.3424 TS 50 0 16 15
1851289N29282 1851 18 NA NA NOT_NAMED 1851-10-19 06:00:00 TS 38.5000 -72.1000 50 hurdat_atl main 219 177 O_____________ hurdat_atl AL061851 38.5000 -72.1000 TS 50 0 16 12
1851289N29282 1851 18 NA NA NOT_NAMED 1851-10-19 09:00:00 TS 39.3261 -71.9257 main 177 94 P_____________ AL061851 39.3261 -71.9257 TS 50 0 17 8
1851289N29282 1851 18 NA NA NOT_NAMED 1851-10-19 12:00:00 TS 40.2000 -71.8000 50 hurdat_atl main 94 37 O_____________ hurdat_atl AL061851 40.2000 -71.8000 TS 50 0 18 6
1851289N29282 1851 18 NA NA NOT_NAMED 1851-10-19 15:00:00 TS 41.1000 -71.7000 50 hurdat_atl main 27 0 O_____________ hurdat_atl AL061851 41.1000 -71.7000 L TS 50 0 18 5
1851289N29282 1851 18 NA NA NOT_NAMED 1851-10-19 18:00:00 TS 42.0000 -71.6000 40 hurdat_atl main 0 O_____________ hurdat_atl AL061851 42.0000 -71.6000 TS 40 0 18 5

About IBTrACS Database

This database is a web-friendly format of International Best Track Archive for Climate Stewardship (IBTrACS), a global best track data archive curated by NOAA dating back to 1842.

Updated: 2021-10-27